createdAt,value
2019-04-25T00:01:12.352Z,100173.14
2019-04-25T00:03:43.669Z,100180.80
2019-04-25T00:06:15.747Z,100176.59
2019-04-25T00:08:46.046Z,100187.77
2019-04-25T00:11:16.652Z,100187.83
2019-04-25T00:13:47.873Z,100189.11
2019-04-25T00:16:21.573Z,100194.06
2019-04-25T00:18:52.136Z,100194.41
2019-04-25T00:21:44.589Z,100198.04
2019-04-25T00:24:39.606Z,100192.93
2019-04-25T00:27:09.971Z,100183.05
2019-04-25T00:29:40.991Z,100182.56
2019-04-25T00:32:12.576Z,100169.06
2019-04-25T00:34:45.434Z,100169.06
2019-04-25T00:37:16.172Z,100166.80
2019-04-25T00:39:47.486Z,100168.64
2019-04-25T00:42:18.072Z,100169.97
2019-04-25T00:44:49.429Z,100171.31
2019-04-25T00:47:21.666Z,100164.57
2019-04-25T00:49:53.274Z,100161.37
2019-04-25T00:52:25.321Z,100152.91
2019-04-25T00:55:01.916Z,100146.77
2019-04-25T00:57:34.304Z,100150.20
2019-04-25T01:00:22.195Z,100156.12
2019-04-25T01:02:53.487Z,100143.34
2019-04-25T01:05:27.893Z,100151.14
2019-04-25T01:08:02.104Z,100155.38
2019-04-25T01:10:31.578Z,100148.59
2019-04-25T01:13:03.075Z,100142.80
2019-04-25T01:15:35.806Z,100144.50
2019-04-25T01:18:06.641Z,100149.84
2019-04-25T01:20:38.734Z,100147.20
2019-04-25T01:23:09.125Z,100154.83
2019-04-25T01:25:42.692Z,100159.77
2019-04-25T01:28:13.154Z,100157.53
2019-04-25T01:30:46.283Z,100157.70
2019-04-25T01:33:16.771Z,100170.67
2019-04-25T01:35:55.780Z,100181.23
2019-04-25T01:38:31.207Z,100168.23
2019-04-25T01:41:20.476Z,100171.03
2019-04-25T01:43:59.681Z,100171.95
2019-04-25T01:46:29.970Z,100172.42
2019-04-25T01:51:37.393Z,100175.75
2019-04-25T01:54:10.821Z,100184.92
2019-04-25T01:56:41.166Z,100192.59
2019-04-25T01:59:11.754Z,100196.91
2019-04-25T02:01:42.181Z,100204.52
2019-04-25T02:04:13.345Z,100196.02
2019-04-25T02:06:43.626Z,100188.73
2019-04-25T02:09:14.668Z,100181.15
2019-04-25T02:11:54.393Z,100191.19
2019-04-25T02:14:24.841Z,100186.98
2019-04-25T02:16:56.266Z,100188.81
2019-04-25T02:19:28.825Z,100187.91
2019-04-25T02:21:59.880Z,100185.41
2019-04-25T02:24:33.911Z,100184.98
2019-04-25T02:27:04.740Z,100189.25
2019-04-25T02:29:37.618Z,100184.69
2019-04-25T02:32:09.145Z,100190.35
2019-04-25T02:34:39.750Z,100188.98
2019-04-25T02:37:10.622Z,100194.68
2019-04-25T02:39:41.158Z,100199.30
2019-04-25T02:42:16.209Z,100194.50
2019-04-25T02:44:48.571Z,100200.48
2019-04-25T02:47:46.970Z,100199.49
2019-04-25T02:50:44.090Z,100210.58
2019-04-25T02:53:36.515Z,100206.80
2019-04-25T02:56:07.915Z,100213.44
2019-04-25T02:58:35.821Z,100210.98
2019-04-25T03:01:18.033Z,100210.03
2019-04-25T03:03:47.277Z,100208.75
2019-04-25T03:06:15.707Z,100197.72
2019-04-25T03:08:45.981Z,100197.72
2019-04-25T03:11:18.147Z,100207.48
2019-04-25T03:13:48.624Z,100213.56
2019-04-25T03:16:21.275Z,100209.33
2019-04-25T03:19:02.921Z,100213.95
2019-04-25T03:21:35.283Z,100206.69
2019-04-25T03:24:10.228Z,100203.91
2019-04-25T03:26:40.633Z,100196.01
2019-04-25T03:29:09.948Z,100191.30
2019-04-25T03:31:40.894Z,100200.53
2019-04-25T03:34:15.994Z,100200.48
2019-04-25T03:36:44.604Z,100194.55
2019-04-25T03:39:16.498Z,100200.07
2019-04-25T03:41:47.973Z,100197.05
2019-04-25T03:44:18.224Z,100203.20
2019-04-25T03:46:48.990Z,100196.08
2019-04-25T03:49:19.304Z,100202.45
2019-04-25T03:51:51.701Z,100202.24
2019-04-25T03:54:23.136Z,100196.97
2019-04-25T03:56:56.145Z,100197.90
2019-04-25T03:59:27.524Z,100200.07
2019-04-25T04:02:01.172Z,100192.41
2019-04-25T04:04:33.383Z,100204.47
2019-04-25T04:07:08.321Z,100198.74
2019-04-25T04:09:36.581Z,100200.58
2019-04-25T04:12:07.986Z,100205.11
2019-04-25T04:14:38.630Z,100204.14
2019-04-25T04:17:16.055Z,100200.38
2019-04-25T04:19:53.795Z,100195.85
2019-04-25T04:22:30.786Z,100196.06
2019-04-25T04:25:01.220Z,100205.05
2019-04-25T04:27:31.868Z,100201.94
2019-04-25T04:30:04.113Z,100217.49
2019-04-25T04:32:34.786Z,100218.48
2019-04-25T04:35:05.414Z,100213.25
2019-04-25T04:37:36.441Z,100219.24
2019-04-25T04:40:08.040Z,100217.17
2019-04-25T04:42:40.060Z,100206.86
2019-04-25T04:45:10.489Z,100207.60
2019-04-25T04:47:43.326Z,100214.13
2019-04-25T04:50:15.219Z,100210.36
2019-04-25T04:52:46.175Z,100220.20
2019-04-25T04:55:18.303Z,100229.45
2019-04-25T04:57:49.273Z,100224.59
2019-04-25T05:00:19.895Z,100226.48
2019-04-25T05:03:07.404Z,100227.11
2019-04-25T05:06:11.681Z,100232.05
2019-04-25T05:08:46.223Z,100242.45
2019-04-25T05:11:18.167Z,100238.81
2019-04-25T05:14:04.023Z,100251.48
2019-04-25T05:16:33.687Z,100252.28
2019-04-25T05:19:03.979Z,100251.78
2019-04-25T05:21:34.596Z,100250.28
2019-04-25T05:24:04.859Z,100250.94
2019-04-25T05:26:35.206Z,100259.62
2019-04-25T05:29:05.740Z,100261.90
2019-04-25T05:31:46.171Z,100259.84
2019-04-25T05:34:17.232Z,100246.61
2019-04-25T05:36:48.908Z,100258.73
2019-04-25T05:39:20.281Z,100246.84
2019-04-25T05:42:18.529Z,100245.30
2019-04-25T05:44:49.095Z,100241.67
2019-04-25T05:47:22.332Z,100248.14
2019-04-25T05:49:54.125Z,100253.20
2019-04-25T05:52:25.245Z,100256.44
2019-04-25T05:54:56.338Z,100264.28
2019-04-25T05:57:26.969Z,100242.89
2019-04-25T05:59:57.738Z,100238.66
2019-04-25T06:02:28.045Z,100234.38
2019-04-25T06:04:58.486Z,100231.05
2019-04-25T06:07:29.112Z,100247.31
2019-04-25T06:10:26.735Z,100253.44
2019-04-25T06:13:15.153Z,100264.72
2019-04-25T06:15:47.525Z,100280.30
2019-04-25T06:18:33.881Z,100292.40
2019-04-25T06:21:07.479Z,100296.40
2019-04-25T06:24:13.297Z,100294.31
2019-04-25T06:26:51.917Z,100291.90
2019-04-25T06:29:23.936Z,100292.98
2019-04-25T06:32:05.616Z,100297.38
2019-04-25T06:34:31.678Z,100304.06
2019-04-25T06:37:04.247Z,100298.59
2019-04-25T06:39:34.154Z,100306.45
2019-04-25T06:42:04.829Z,100299.10
2019-04-25T06:44:40.332Z,100288.30
2019-04-25T06:47:27.551Z,100288.30
2019-04-25T06:49:59.945Z,100287.38
2019-04-25T06:52:34.422Z,100296.68
2019-04-25T06:55:04.997Z,100288.09
2019-04-25T06:57:35.332Z,100312.52
2019-04-25T07:00:07.928Z,100298.52
2019-04-25T07:02:39.932Z,100300.91
2019-04-25T07:05:26.178Z,100305.75
2019-04-25T07:07:48.218Z,100303.64
2019-04-25T07:10:19.013Z,100308.48
2019-04-25T07:12:49.352Z,100311.14
2019-04-25T07:15:19.822Z,100309.92
2019-04-25T07:17:50.293Z,100308.17
2019-04-25T07:20:20.960Z,100315.48
2019-04-25T07:22:51.294Z,100312.49
2019-04-25T07:25:26.350Z,100317.92
2019-04-25T07:28:29.010Z,100315.63
2019-04-25T07:31:33.508Z,100325.34
2019-04-25T07:34:13.294Z,100330.34
2019-04-25T07:36:45.552Z,100335.17
2019-04-25T07:39:16.746Z,100344.38
2019-04-25T07:41:47.577Z,100348.72
2019-04-25T07:44:22.005Z,100355.95
2019-04-25T07:46:51.196Z,100362.37
2019-04-25T07:49:23.453Z,100360.17
2019-04-25T07:51:54.159Z,100349.88
2019-04-25T07:54:26.423Z,100334.80
2019-04-25T07:56:56.582Z,100333.52
2019-04-25T07:59:27.775Z,100331.81
2019-04-25T08:01:58.454Z,100349.88
2019-04-25T08:04:29.062Z,100344.31
2019-04-25T08:06:59.694Z,100333.98
2019-04-25T08:09:30.321Z,100338.73
2019-04-25T08:12:00.896Z,100335.29
2019-04-25T08:14:45.971Z,100324.41
2019-04-25T08:17:18.959Z,100327.52
2019-04-25T08:19:49.748Z,100325.63
2019-04-25T08:22:20.460Z,100328.17
2019-04-25T08:24:51.090Z,100327.52
2019-04-25T08:27:23.161Z,100332.75
2019-04-25T08:29:54.262Z,100335.67
2019-04-25T08:32:25.406Z,100352.31
2019-04-25T08:34:55.942Z,100349.72
2019-04-25T08:37:26.262Z,100347.41
2019-04-25T08:39:56.608Z,100350.28
2019-04-25T08:42:27.199Z,100361.95
2019-04-25T08:44:57.819Z,100360.53
2019-04-25T08:47:28.297Z,100364.20
2019-04-25T08:50:08.306Z,100369.28
2019-04-25T08:52:38.695Z,100369.28
2019-04-25T08:55:15.067Z,100382.48
2019-04-25T08:57:55.139Z,100367.94
2019-04-25T09:00:38.331Z,100376.82
2019-04-25T09:03:12.163Z,100359.52
2019-04-25T09:05:46.260Z,100353.70
2019-04-25T09:08:17.346Z,100357.62
2019-04-25T09:13:23.830Z,100335.05
2019-04-25T09:15:56.635Z,100352.11
2019-04-25T09:18:27.213Z,100358.95
2019-04-25T09:20:57.841Z,100357.33
2019-04-25T09:23:28.554Z,100362.80
2019-04-25T09:28:38.048Z,100378.70
2019-04-25T09:31:08.195Z,100371.84
2019-04-25T09:33:39.146Z,100378.50
2019-04-25T09:36:09.733Z,100371.50
2019-04-25T09:38:40.983Z,100377.84
2019-04-25T09:41:13.856Z,100380.34
2019-04-25T09:43:46.622Z,100366.83
2019-04-25T09:46:25.124Z,100365.91
2019-04-25T09:49:10.109Z,100360.06
2019-04-25T09:52:03.794Z,100360.36
2019-04-25T09:54:48.771Z,100351.58
2019-04-25T09:57:36.890Z,100350.52
2019-04-25T10:00:13.623Z,100341.73
2019-04-25T10:02:47.022Z,100352.94
2019-04-25T10:05:17.686Z,100347.64
2019-04-25T10:07:48.967Z,100347.94
2019-04-25T10:10:19.802Z,100347.94
2019-04-25T10:12:50.516Z,100346.97
2019-04-25T10:15:47.958Z,100355.83
2019-04-25T10:18:18.731Z,100340.39
2019-04-25T10:20:49.682Z,100350.05
2019-04-25T10:23:21.016Z,100349.86
2019-04-25T10:25:53.660Z,100345.20
2019-04-25T10:28:24.800Z,100354.53
2019-04-25T10:30:56.497Z,100356.02
2019-04-25T10:33:27.972Z,100354.53
2019-04-25T10:36:01.131Z,100355.32
2019-04-25T10:38:33.601Z,100358.37
2019-04-25T10:41:04.493Z,100356.11
2019-04-25T10:43:36.476Z,100349.39
2019-04-25T10:46:07.178Z,100350.10
2019-04-25T10:48:39.911Z,100330.38
2019-04-25T10:51:10.730Z,100326.25
2019-04-25T10:53:42.068Z,100328.77
2019-04-25T10:56:14.164Z,100333.00
2019-04-25T10:58:46.662Z,100331.84
2019-04-25T11:01:17.812Z,100320.22
2019-04-25T11:04:08.912Z,100319.73
2019-04-25T11:06:41.793Z,100316.73
2019-04-25T11:09:20.119Z,100307.14
2019-04-25T11:11:51.173Z,100303.33
2019-04-25T11:14:23.784Z,100306.95
2019-04-25T11:16:56.596Z,100303.98
2019-04-25T11:19:27.235Z,100297.37
2019-04-25T11:21:57.621Z,100307.64
2019-04-25T11:24:28.188Z,100307.64
2019-04-25T11:26:58.875Z,100303.67
2019-04-25T11:29:29.278Z,100306.56
2019-04-25T11:32:00.469Z,100308.14
2019-04-25T11:34:31.213Z,100296.02
2019-04-25T11:37:03.708Z,100318.65
2019-04-25T11:39:47.293Z,100329.08
2019-04-25T11:42:19.783Z,100328.73
2019-04-25T11:44:50.396Z,100328.73
2019-04-25T11:47:24.255Z,100326.34
2019-04-25T11:49:55.794Z,100330.05
2019-04-25T11:52:29.987Z,100327.38
2019-04-25T11:54:59.037Z,100310.48
2019-04-25T11:57:31.378Z,100305.05
2019-04-25T12:00:01.931Z,100301.42
2019-04-25T12:02:34.390Z,100286.42
2019-04-25T12:05:06.536Z,100291.25
2019-04-25T12:07:37.173Z,100273.95
2019-04-25T12:10:08.368Z,100273.95
2019-04-25T12:12:40.662Z,100269.55
2019-04-25T12:15:13.230Z,100267.56
2019-04-25T12:17:44.846Z,100255.44
2019-04-25T12:20:15.384Z,100253.89
2019-04-25T12:22:48.228Z,100254.98
2019-04-25T12:25:18.898Z,100250.05
2019-04-25T12:27:51.376Z,100241.75
2019-04-25T12:30:36.416Z,100254.70
2019-04-25T12:32:57.624Z,100243.53
2019-04-25T12:35:28.293Z,100255.53
2019-04-25T12:37:59.204Z,100238.96
2019-04-25T12:40:29.540Z,100244.55
2019-04-25T12:43:00.429Z,100224.80
2019-04-25T12:45:53.135Z,100224.80
2019-04-25T12:48:23.658Z,100218.84
2019-04-25T12:50:55.423Z,100223.13
2019-04-25T12:53:26.380Z,100230.83
2019-04-25T12:55:57.115Z,100225.16
2019-04-25T12:58:28.382Z,100217.03
2019-04-25T13:01:00.056Z,100219.63
2019-04-25T13:03:32.047Z,100225.88
2019-04-25T13:06:03.176Z,100219.58
2019-04-25T13:08:34.134Z,100216.56
2019-04-25T13:11:08.553Z,100214.73
2019-04-25T13:13:37.453Z,100215.76
2019-04-25T13:16:07.919Z,100206.87
2019-04-25T13:18:39.482Z,100190.29
2019-04-25T13:21:10.252Z,100195.57
2019-04-25T13:23:40.857Z,100213.18
2019-04-25T13:26:11.283Z,100200.00
2019-04-25T13:29:09.524Z,100194.88
2019-04-25T13:31:59.109Z,100194.88
2019-04-25T13:34:36.777Z,100196.37
2019-04-25T13:37:07.803Z,100196.67
2019-04-25T13:39:38.418Z,100195.28
2019-04-25T13:42:09.166Z,100214.48
2019-04-25T13:44:39.775Z,100214.48
2019-04-25T13:47:14.034Z,100214.90
2019-04-25T13:49:45.031Z,100212.16
2019-04-25T13:52:17.716Z,100214.04
2019-04-25T13:54:48.475Z,100219.11
2019-04-25T13:57:20.760Z,100209.84
2019-04-25T13:59:52.162Z,100215.48
2019-04-25T14:02:24.678Z,100205.66
2019-04-25T14:04:55.401Z,100210.77
2019-04-25T14:07:27.329Z,100211.88
2019-04-25T14:09:57.968Z,100211.88
2019-04-25T14:12:32.449Z,100219.86
2019-04-25T14:15:10.617Z,100219.86
2019-04-25T14:18:05.040Z,100218.50
2019-04-25T14:20:40.558Z,100215.58
2019-04-25T14:23:13.446Z,100213.75
2019-04-25T14:25:43.267Z,100218.66
2019-04-25T14:28:14.214Z,100221.95
2019-04-25T14:30:45.049Z,100219.95
2019-04-25T14:33:15.649Z,100221.02
2019-04-25T14:35:46.381Z,100212.14
2019-04-25T14:38:16.980Z,100219.66
2019-04-25T14:40:47.648Z,100220.56
2019-04-25T14:43:17.920Z,100218.09
2019-04-25T14:45:48.564Z,100216.13
2019-04-25T14:48:18.907Z,100220.60
2019-04-25T14:50:51.179Z,100220.60
2019-04-25T14:53:28.024Z,100227.05
2019-04-25T14:56:16.285Z,100239.34
2019-04-25T14:58:47.181Z,100241.13
2019-04-25T15:01:20.450Z,100244.53
2019-04-25T15:03:51.186Z,100247.07
2019-04-25T15:06:23.378Z,100242.34
2019-04-25T15:08:55.620Z,100231.50
2019-04-25T15:11:26.956Z,100239.73
2019-04-25T15:13:57.711Z,100243.55
2019-04-25T15:16:29.051Z,100238.19
2019-04-25T15:19:00.236Z,100234.91
2019-04-25T15:21:32.244Z,100242.11
2019-04-25T15:24:02.994Z,100250.81
2019-04-25T15:26:35.410Z,100242.92
2019-04-25T15:29:06.203Z,100252.91
2019-04-25T15:31:36.774Z,100255.52
2019-04-25T15:34:07.365Z,100254.88
2019-04-25T15:36:47.435Z,100257.57
2019-04-25T15:39:39.807Z,100254.86
2019-04-25T15:42:38.860Z,100256.73
2019-04-25T15:45:31.285Z,100252.09
2019-04-25T15:48:04.092Z,100255.70
2019-04-25T15:50:35.065Z,100255.16
2019-04-25T15:53:08.122Z,100255.52
2019-04-25T15:55:38.726Z,100250.80
2019-04-25T15:58:09.054Z,100242.92
2019-04-25T16:00:40.141Z,100244.66
2019-04-25T16:03:15.931Z,100247.37
2019-04-25T16:05:46.510Z,100250.79
2019-04-25T16:08:16.846Z,100252.73
2019-04-25T16:10:47.407Z,100257.87
2019-04-25T16:13:19.612Z,100257.80
2019-04-25T16:15:50.585Z,100262.62
2019-04-25T16:18:21.231Z,100261.09
2019-04-25T16:20:51.825Z,100259.31
2019-04-25T16:23:22.510Z,100268.08
2019-04-25T16:25:52.946Z,100260.52
2019-04-25T16:28:23.749Z,100252.38
2019-04-25T16:30:54.171Z,100242.85
2019-04-25T16:33:24.798Z,100253.34
2019-04-25T16:35:58.058Z,100255.98
2019-04-25T16:38:29.812Z,100266.05
2019-04-25T16:41:00.364Z,100272.75
2019-04-25T16:43:35.231Z,100282.48
2019-04-25T16:46:05.832Z,100295.88
2019-04-25T16:48:36.844Z,100295.88
2019-04-25T16:51:07.450Z,100289.99
2019-04-25T16:53:38.491Z,100294.00
2019-04-25T16:56:09.072Z,100309.61
2019-04-25T16:58:39.705Z,100320.90
2019-04-25T17:01:12.375Z,100321.86
2019-04-25T17:03:43.101Z,100315.67
2019-04-25T17:06:14.419Z,100315.67
2019-04-25T17:08:45.463Z,100312.27
2019-04-25T17:11:17.860Z,100327.84
2019-04-25T17:13:57.990Z,100332.13
2019-04-25T17:16:46.406Z,100335.59
2019-04-25T17:19:21.742Z,100339.08
2019-04-25T17:21:52.381Z,100344.32
2019-04-25T17:24:23.517Z,100349.13
2019-04-25T17:26:54.148Z,100350.91
2019-04-25T17:29:25.008Z,100355.28
2019-04-25T17:32:14.284Z,100356.14
2019-04-25T17:35:09.777Z,100357.91
2019-04-25T17:37:46.547Z,100351.09
2019-04-25T17:40:20.607Z,100359.37
2019-04-25T17:42:51.455Z,100369.37
2019-04-25T17:45:26.043Z,100365.48
2019-04-25T17:47:56.396Z,100371.11
2019-04-25T17:50:26.984Z,100378.53
2019-04-25T17:52:57.525Z,100391.52
2019-04-25T17:55:28.724Z,100389.44
2019-04-25T17:58:00.097Z,100392.92
2019-04-25T18:00:37.780Z,100389.54
2019-04-25T18:03:10.862Z,100382.70
2019-04-25T18:05:41.888Z,100359.89
2019-04-25T18:08:12.328Z,100370.69
2019-04-25T18:10:42.799Z,100386.20
2019-04-25T18:13:14.120Z,100383.17
2019-04-25T18:16:06.929Z,100396.09
2019-04-25T18:18:47.350Z,100393.52
2019-04-25T18:21:19.957Z,100389.64
2019-04-25T18:24:27.668Z,100386.19
2019-04-25T18:27:17.222Z,100390.52
2019-04-25T18:29:49.620Z,100391.35
2019-04-25T18:32:23.528Z,100381.00
2019-04-25T18:34:59.056Z,100387.04
2019-04-25T18:37:47.320Z,100404.27
2019-04-25T18:40:28.568Z,100409.43
2019-04-25T18:43:10.125Z,100420.61
2019-04-25T18:45:44.475Z,100458.52
2019-04-25T18:48:15.761Z,100459.78
2019-04-25T18:50:46.788Z,100453.23
2019-04-25T18:53:37.700Z,100454.05
2019-04-25T18:56:19.242Z,100475.02
2019-04-25T18:59:03.277Z,100475.73
2019-04-25T19:01:44.501Z,100494.89
2019-04-25T19:04:23.427Z,100500.03
2019-04-25T19:06:58.299Z,100516.34
2019-04-25T19:09:27.270Z,100516.34
2019-04-25T19:11:59.767Z,100535.30
2019-04-25T19:14:30.169Z,100550.05
2019-04-25T19:17:02.233Z,100570.77
2019-04-25T19:19:32.966Z,100556.86
2019-04-25T19:22:05.247Z,100548.03
2019-04-25T19:24:35.767Z,100570.22
2019-04-25T19:27:06.434Z,100563.73
2019-04-25T19:29:40.333Z,100570.12
2019-04-25T19:32:11.758Z,100580.67
2019-04-25T19:35:01.498Z,100572.14
2019-04-25T19:37:51.037Z,100562.27
2019-04-25T19:40:40.743Z,100553.09
2019-04-25T19:43:25.659Z,100553.09
2019-04-25T19:46:02.425Z,100566.06
2019-04-25T19:48:29.580Z,100563.77
2019-04-25T19:51:00.261Z,100556.41
2019-04-25T19:53:34.330Z,100561.89
2019-04-25T19:56:04.687Z,100572.97
2019-04-25T19:58:35.103Z,100575.08
2019-04-25T20:01:05.647Z,100579.39
2019-04-25T20:03:58.485Z,100600.77
2019-04-25T20:06:47.514Z,100596.52
2019-04-25T20:09:39.754Z,100600.84
2019-04-25T20:12:24.018Z,100615.84
2019-04-25T20:14:57.885Z,100627.66
2019-04-25T20:17:28.376Z,100616.86
2019-04-25T20:19:59.268Z,100615.90
2019-04-25T20:22:30.012Z,100621.34
2019-04-25T20:25:03.302Z,100620.39
2019-04-25T20:27:37.334Z,100607.09
2019-04-25T20:30:08.295Z,100605.72
2019-04-25T20:32:39.060Z,100616.31
2019-04-25T20:35:14.455Z,100609.75
2019-04-25T20:37:47.185Z,100596.02
2019-04-25T20:40:18.142Z,100601.93
2019-04-25T20:42:49.705Z,100610.82
2019-04-25T20:45:25.818Z,100592.84
2019-04-25T20:47:56.942Z,100608.16
2019-04-25T20:50:30.840Z,100599.19
2019-04-25T20:53:10.351Z,100596.08
2019-04-25T20:55:42.569Z,100589.59
2019-04-25T20:58:15.859Z,100605.88
2019-04-25T21:00:49.751Z,100607.16
2019-04-25T21:03:20.635Z,100596.97
2019-04-25T21:06:00.266Z,100590.61
2019-04-25T21:08:31.973Z,100591.89
2019-04-25T21:11:02.650Z,100601.39
2019-04-25T21:13:46.022Z,100601.39
2019-04-25T21:16:33.785Z,100606.05
2019-04-25T21:19:10.613Z,100606.91
2019-04-25T21:21:42.325Z,100594.44
2019-04-25T21:24:12.949Z,100597.80
2019-04-25T21:26:43.277Z,100600.34
2019-04-25T21:29:14.126Z,100586.66
2019-04-25T21:31:44.790Z,100580.77
2019-04-25T21:34:25.470Z,100573.84
2019-04-25T21:36:47.930Z,100568.28
2019-04-25T21:39:28.040Z,100573.96
2019-04-25T21:42:08.563Z,100569.70
2019-04-25T21:44:39.171Z,100561.55
2019-04-25T21:47:09.536Z,100565.78
2019-04-25T21:49:40.328Z,100562.27
2019-04-25T21:52:10.972Z,100567.38
2019-04-25T21:54:42.210Z,100564.38
2019-04-25T21:57:12.685Z,100564.38
2019-04-25T21:59:44.522Z,100564.11
2019-04-25T22:02:15.215Z,100573.55
2019-04-25T22:04:46.329Z,100586.23
2019-04-25T22:07:16.902Z,100586.23
2019-04-25T22:09:47.691Z,100590.56
2019-04-25T22:12:18.549Z,100600.84
2019-04-25T22:14:49.007Z,100612.91
2019-04-25T22:17:19.306Z,100624.48
2019-04-25T22:19:50.627Z,100625.69
2019-04-25T22:22:22.199Z,100625.61
2019-04-25T22:24:53.029Z,100644.85
2019-04-25T22:27:28.870Z,100635.70
2019-04-25T22:30:01.796Z,100630.09
2019-04-25T22:32:59.495Z,100620.18
2019-04-25T22:35:46.050Z,100624.41
2019-04-25T22:38:16.888Z,100607.72
2019-04-25T22:40:47.192Z,100620.88
2019-04-25T22:43:17.881Z,100617.03
2019-04-25T22:45:48.708Z,100614.00
2019-04-25T22:48:26.016Z,100611.90
2019-04-25T22:50:56.929Z,100602.52
2019-04-25T22:53:27.230Z,100596.05
2019-04-25T22:55:57.798Z,100593.41
2019-04-25T22:58:28.204Z,100588.66
2019-04-25T23:00:58.877Z,100613.03
2019-04-25T23:03:37.921Z,100610.47
2019-04-25T23:06:08.461Z,100596.77
2019-04-25T23:08:39.220Z,100583.07
2019-04-25T23:11:10.603Z,100571.97
2019-04-25T23:13:41.133Z,100568.48
2019-04-25T23:16:11.911Z,100573.13
2019-04-25T23:18:44.404Z,100572.97
2019-04-25T23:21:14.812Z,100586.91
2019-04-25T23:23:45.888Z,100575.84
2019-04-25T23:26:44.292Z,100565.69
2019-04-25T23:29:16.529Z,100565.81
2019-04-25T23:31:47.196Z,100561.59
2019-04-25T23:34:17.992Z,100572.38
2019-04-25T23:36:48.294Z,100578.87
2019-04-25T23:39:18.722Z,100586.17
2019-04-25T23:41:49.042Z,100599.54
2019-04-25T23:44:19.607Z,100603.88
2019-04-25T23:46:50.100Z,100590.17
2019-04-25T23:49:20.371Z,100583.61
2019-04-25T23:51:50.845Z,100577.86
2019-04-25T23:54:24.710Z,100584.51
2019-04-25T23:56:55.229Z,100597.25
2019-04-25T23:59:25.538Z,100604.78
